createdAt,value
2022-11-22T00:04:01.254Z,-0.10
2022-11-22T00:06:35.697Z,-0.10
2022-11-22T00:21:29.422Z,-0.20
2022-11-22T00:24:00.247Z,-0.20
2022-11-22T00:38:56.976Z,-0.20
2022-11-22T00:43:56.087Z,-2.10
2022-11-22T00:56:20.187Z,-0.70
2022-11-22T01:13:40.611Z,0.00
2022-11-22T01:16:11.135Z,0.00
2022-11-22T01:26:08.340Z,0.10
2022-11-22T01:31:09.305Z,0.10
2022-11-22T01:46:06.590Z,0.10
2022-11-22T01:48:45.299Z,0.10
2022-11-22T01:51:22.091Z,0.10
2022-11-22T01:56:21.891Z,0.10
2022-11-22T01:58:56.415Z,0.10
2022-11-22T02:03:58.738Z,0.10
2022-11-22T02:06:32.781Z,0.10
2022-11-22T02:09:05.666Z,0.10
2022-11-22T02:11:37.234Z,0.10
2022-11-22T02:14:06.560Z,0.00
2022-11-22T02:16:36.471Z,0.10
2022-11-22T02:19:07.308Z,0.10
2022-11-22T02:24:22.100Z,0.20
2022-11-22T02:26:51.829Z,0.20
2022-11-22T02:36:51.960Z,0.20
2022-11-22T02:39:25.462Z,0.30
2022-11-22T02:41:57.594Z,0.30
2022-11-22T02:44:26.410Z,0.30
2022-11-22T02:46:56.450Z,0.40
2022-11-22T02:49:26.643Z,0.40
2022-11-22T02:59:22.658Z,0.50
2022-11-22T03:04:28.428Z,0.50
2022-11-22T03:06:58.136Z,0.60
2022-11-22T03:12:13.210Z,0.60
2022-11-22T03:14:42.974Z,0.60
2022-11-22T03:17:18.679Z,0.60
2022-11-22T03:29:59.246Z,0.80
2022-11-22T03:47:20.524Z,0.90
2022-11-22T04:04:42.614Z,1.00
2022-11-22T04:20:24.556Z,1.00
2022-11-22T04:22:57.063Z,1.00
2022-11-22T04:30:22.298Z,1.10
2022-11-22T04:32:52.403Z,1.10
2022-11-22T04:35:21.799Z,1.10
2022-11-22T04:37:52.209Z,1.10
2022-11-22T04:40:20.312Z,1.10
2022-11-22T04:43:05.660Z,1.10
2022-11-22T04:45:33.791Z,1.20
2022-11-22T04:50:50.417Z,1.10
2022-11-22T04:53:19.687Z,1.10
2022-11-22T04:55:48.461Z,1.10
2022-11-22T04:58:16.935Z,1.10
2022-11-22T05:00:45.631Z,1.10
2022-11-22T05:03:13.759Z,1.10
2022-11-22T05:05:44.738Z,1.10
2022-11-22T05:08:13.291Z,1.10
2022-11-22T05:11:00.424Z,1.20
2022-11-22T05:13:31.476Z,1.20
2022-11-22T05:16:00.784Z,1.20
2022-11-22T05:18:29.736Z,1.20
2022-11-22T05:21:00.779Z,1.20
2022-11-22T05:23:46.170Z,1.20
2022-11-22T05:31:12.879Z,1.20
2022-11-22T05:33:43.183Z,1.20
2022-11-22T05:36:13.513Z,1.20
2022-11-22T05:38:41.981Z,1.20
2022-11-22T05:41:11.902Z,1.20
2022-11-22T05:43:40.522Z,1.10
2022-11-22T05:46:09.951Z,1.10
2022-11-22T05:48:39.805Z,1.10
2022-11-22T05:51:09.335Z,1.10
2022-11-22T05:53:40.479Z,1.10
2022-11-22T05:56:09.889Z,1.00
2022-11-22T06:01:07.768Z,1.10
2022-11-22T06:03:36.331Z,1.00
2022-11-22T06:06:05.068Z,1.00
2022-11-22T06:08:35.008Z,1.00
2022-11-22T06:11:08.162Z,1.00
2022-11-22T06:13:37.278Z,1.00
2022-11-22T06:21:04.274Z,0.90
2022-11-22T06:26:01.897Z,0.90
2022-11-22T06:28:33.142Z,0.90
2022-11-22T06:31:02.763Z,0.90
2022-11-22T06:36:03.843Z,0.80
2022-11-22T06:38:32.050Z,0.80
2022-11-22T06:41:03.473Z,0.80
2022-11-22T06:43:34.182Z,0.00
2022-11-22T06:46:03.493Z,0.80
2022-11-22T06:48:33.497Z,0.80
2022-11-22T06:51:02.447Z,0.90
2022-11-22T06:53:46.823Z,0.90
2022-11-22T06:56:17.979Z,1.00
2022-11-22T06:58:48.347Z,1.00
2022-11-22T07:01:18.897Z,1.10
2022-11-22T07:03:47.769Z,1.10
2022-11-22T07:06:18.086Z,1.10
2022-11-22T07:08:46.795Z,1.10
2022-11-22T07:11:17.052Z,1.10
2022-11-22T07:13:47.496Z,1.20
2022-11-22T07:16:17.203Z,1.20
2022-11-22T07:18:45.772Z,1.30
2022-11-22T07:21:16.917Z,1.40
2022-11-22T07:23:46.660Z,1.40
2022-11-22T07:26:16.461Z,1.40
2022-11-22T07:31:15.736Z,1.50
2022-11-22T07:33:44.669Z,1.60
2022-11-22T07:36:14.791Z,1.60
2022-11-22T07:38:42.951Z,1.70
2022-11-22T07:41:11.733Z,1.70
2022-11-22T07:43:39.852Z,1.80
2022-11-22T07:46:09.401Z,1.80
2022-11-22T07:48:39.041Z,1.90
2022-11-22T07:51:08.139Z,1.90
2022-11-22T07:53:36.745Z,2.10
2022-11-22T07:56:05.816Z,2.10
2022-11-22T07:58:34.504Z,2.10
2022-11-22T08:01:07.424Z,2.10
2022-11-22T08:03:35.933Z,2.30
2022-11-22T08:06:07.364Z,2.30
2022-11-22T08:08:36.142Z,2.40
2022-11-22T08:11:05.008Z,2.50
2022-11-22T08:13:33.758Z,2.50
2022-11-22T08:16:05.557Z,3.00
2022-11-22T08:18:35.044Z,2.50
2022-11-22T08:21:06.887Z,2.50
2022-11-22T08:26:03.992Z,2.90
2022-11-22T08:28:32.593Z,3.00
2022-11-22T08:31:02.591Z,3.10
2022-11-22T08:35:59.299Z,3.10
2022-11-22T08:38:29.581Z,4.60
2022-11-22T08:43:26.680Z,3.20
2022-11-22T08:45:59.496Z,3.20
2022-11-22T08:48:28.130Z,3.20
2022-11-22T08:50:57.534Z,3.10
2022-11-22T08:53:26.747Z,3.10
2022-11-22T08:55:56.609Z,4.40
2022-11-22T08:58:24.851Z,3.30
2022-11-22T09:08:41.112Z,5.30
2022-11-22T09:11:18.451Z,4.50
2022-11-22T09:16:17.853Z,3.70
2022-11-22T09:18:48.383Z,3.90
2022-11-22T09:21:19.591Z,3.80
2022-11-22T09:23:49.598Z,4.10
2022-11-22T09:26:22.463Z,5.60
2022-11-22T09:28:50.609Z,5.70
2022-11-22T09:31:21.124Z,5.10
2022-11-22T09:33:50.228Z,5.90
2022-11-22T09:36:20.984Z,4.90
2022-11-22T09:41:42.120Z,5.00
2022-11-22T09:44:19.300Z,5.20
2022-11-22T09:46:54.156Z,6.70
2022-11-22T09:49:30.786Z,7.90
2022-11-22T09:52:06.321Z,6.00
2022-11-22T09:54:42.777Z,6.70
2022-11-22T09:57:17.622Z,7.70
2022-11-22T09:59:48.793Z,6.40
2022-11-22T10:02:22.719Z,7.00
2022-11-22T10:04:57.695Z,6.10
2022-11-22T10:07:30.931Z,8.20
2022-11-22T10:10:05.267Z,8.00
2022-11-22T10:12:39.665Z,7.50
2022-11-22T10:15:17.258Z,8.40
2022-11-22T10:17:54.213Z,6.50
2022-11-22T10:20:24.408Z,7.00
2022-11-22T10:22:53.330Z,8.70
2022-11-22T10:25:23.446Z,7.70
2022-11-22T10:28:00.807Z,6.60
2022-11-22T10:30:35.727Z,6.60
2022-11-22T10:33:11.381Z,6.80
2022-11-22T10:35:54.255Z,7.20
2022-11-22T10:38:50.540Z,7.40
2022-11-22T10:41:30.990Z,7.60
2022-11-22T10:44:15.763Z,7.90
2022-11-22T10:46:56.342Z,8.70
2022-11-22T10:49:35.961Z,7.10
2022-11-22T10:52:17.159Z,7.10
2022-11-22T10:54:52.061Z,7.40
2022-11-22T10:57:28.669Z,7.70
2022-11-22T11:00:14.822Z,7.30
2022-11-22T11:03:15.179Z,7.20
2022-11-22T11:06:21.276Z,7.00
2022-11-22T11:09:03.126Z,8.60
2022-11-22T11:11:31.438Z,6.80
2022-11-22T11:14:05.009Z,6.70
2022-11-22T11:16:37.458Z,9.30
2022-11-22T11:19:15.412Z,6.90
2022-11-22T11:21:43.574Z,8.20
2022-11-22T11:24:15.442Z,6.90
2022-11-22T11:26:44.643Z,6.90
2022-11-22T11:29:38.475Z,7.30
2022-11-22T11:32:13.510Z,7.20
2022-11-22T11:34:45.688Z,8.00
2022-11-22T11:37:23.882Z,7.30
2022-11-22T11:39:52.158Z,7.70
2022-11-22T11:42:30.659Z,7.50
2022-11-22T11:45:20.860Z,7.60
2022-11-22T11:47:50.477Z,7.50
2022-11-22T11:50:23.957Z,9.40
2022-11-22T11:52:55.996Z,7.50
2022-11-22T11:55:24.453Z,9.80
2022-11-22T11:57:54.730Z,7.80
2022-11-22T12:00:27.861Z,9.60
2022-11-22T12:03:02.641Z,7.60
2022-11-22T12:05:32.830Z,9.00
2022-11-22T12:08:02.458Z,7.90
2022-11-22T12:10:36.454Z,8.10
2022-11-22T12:13:12.119Z,8.00
2022-11-22T12:15:52.636Z,8.10
2022-11-22T12:18:40.576Z,8.30
2022-11-22T12:21:20.316Z,9.00
2022-11-22T12:24:03.717Z,8.50
2022-11-22T12:26:44.266Z,9.10
2022-11-22T12:29:14.873Z,8.70
2022-11-22T12:31:47.059Z,10.00
2022-11-22T12:34:23.802Z,9.10
2022-11-22T12:36:56.912Z,9.50
2022-11-22T12:39:29.086Z,10.70
2022-11-22T12:45:14.376Z,8.70
2022-11-22T12:47:47.451Z,8.40
2022-11-22T12:50:26.603Z,8.30
2022-11-22T12:53:00.094Z,8.20
2022-11-22T12:55:32.232Z,8.00
2022-11-22T12:58:09.767Z,8.00
2022-11-22T13:00:43.059Z,8.10
2022-11-22T13:03:17.254Z,8.00
2022-11-22T13:05:50.040Z,5.60
2022-11-22T13:08:20.533Z,7.80
2022-11-22T13:10:53.327Z,7.90
2022-11-22T13:13:27.323Z,7.90
2022-11-22T13:16:05.914Z,7.90
2022-11-22T13:18:40.067Z,7.80
2022-11-22T13:21:18.539Z,7.90
2022-11-22T13:24:09.309Z,7.80
2022-11-22T13:26:44.622Z,7.90
2022-11-22T13:29:22.115Z,8.80
2022-11-22T13:32:08.945Z,7.80
2022-11-22T13:34:40.779Z,8.40
2022-11-22T13:37:14.736Z,7.70
2022-11-22T13:39:46.440Z,7.60
2022-11-22T13:42:19.011Z,9.70
2022-11-22T13:45:20.839Z,7.50
2022-11-22T13:47:49.865Z,7.40
2022-11-22T13:50:58.020Z,7.40
2022-11-22T13:53:30.946Z,7.40
2022-11-22T13:56:30.055Z,7.40
2022-11-22T13:59:15.383Z,7.30
2022-11-22T14:01:59.953Z,7.30
2022-11-22T14:04:40.278Z,7.30
2022-11-22T14:07:27.480Z,7.20
2022-11-22T14:09:58.066Z,7.20
2022-11-22T14:12:36.183Z,9.30
2022-11-22T14:15:48.462Z,7.10
2022-11-22T14:19:07.152Z,7.00
2022-11-22T14:22:17.799Z,7.00
2022-11-22T14:25:07.112Z,7.00
2022-11-22T14:27:44.971Z,7.00
2022-11-22T14:30:19.340Z,7.00
2022-11-22T14:32:55.730Z,8.30
2022-11-22T14:35:29.903Z,6.90
2022-11-22T14:38:02.810Z,6.90
2022-11-22T14:40:33.876Z,6.90
2022-11-22T14:43:05.938Z,6.80
2022-11-22T14:45:46.970Z,8.70
2022-11-22T14:48:20.972Z,6.80
2022-11-22T14:51:06.693Z,6.60
2022-11-22T14:53:41.267Z,6.60
2022-11-22T14:56:17.352Z,6.60
2022-11-22T14:59:04.940Z,6.50
2022-11-22T15:02:03.900Z,6.50
2022-11-22T15:09:14.765Z,6.40
2022-11-22T15:09:20.092Z,6.30
2022-11-22T15:11:26.116Z,6.20
2022-11-22T15:14:19.220Z,6.20
2022-11-22T15:57:49.299Z,5.40
2022-11-22T16:00:23.032Z,5.40
2022-11-22T16:03:01.544Z,5.40
2022-11-22T16:06:08.554Z,5.30
2022-11-22T16:08:36.073Z,5.40
2022-11-22T16:11:06.020Z,5.30
2022-11-22T16:13:36.293Z,7.50
2022-11-22T16:16:08.177Z,5.30
2022-11-22T16:18:38.406Z,7.50
2022-11-22T16:21:18.216Z,5.30
2022-11-22T16:23:47.137Z,7.60
2022-11-22T16:26:22.217Z,5.30
2022-11-22T16:28:51.769Z,5.30
2022-11-22T16:31:23.888Z,5.70
2022-11-22T16:33:55.017Z,8.10
2022-11-22T16:36:25.234Z,5.30
2022-11-22T16:41:26.534Z,5.30
2022-11-22T16:43:58.040Z,5.20
2022-11-22T16:48:58.318Z,5.20
2022-11-22T16:51:29.334Z,5.20
2022-11-22T16:54:00.663Z,5.20
2022-11-22T16:56:36.876Z,5.10
2022-11-22T17:04:41.164Z,3.50
2022-11-22T17:07:13.080Z,5.10
2022-11-22T17:09:45.957Z,5.00
2022-11-22T17:12:30.456Z,5.00
2022-11-22T17:17:35.333Z,4.90
2022-11-22T17:20:09.174Z,4.90
2022-11-22T17:25:13.847Z,4.90
2022-11-22T17:30:13.148Z,4.90
2022-11-22T17:35:12.525Z,4.90
2022-11-22T17:40:11.422Z,4.90
2022-11-22T17:45:10.154Z,4.80
2022-11-22T17:50:07.766Z,2.20
2022-11-22T17:52:37.365Z,4.70
2022-11-22T17:57:41.318Z,4.60
2022-11-22T18:00:10.677Z,4.50
2022-11-22T18:05:09.841Z,3.80
2022-11-22T18:07:39.787Z,4.40
2022-11-22T18:10:09.995Z,4.40
2022-11-22T18:12:42.453Z,4.30
2022-11-22T18:15:15.303Z,4.30
2022-11-22T18:20:12.886Z,4.30
2022-11-22T18:22:42.887Z,4.20
2022-11-22T18:30:13.069Z,4.20
2022-11-22T18:32:42.564Z,4.10
2022-11-22T18:35:14.294Z,4.10
2022-11-22T18:37:44.067Z,4.20
2022-11-22T18:40:13.653Z,4.00
2022-11-22T18:45:11.530Z,4.00
2022-11-22T18:47:39.833Z,3.90
2022-11-22T18:50:12.366Z,3.90
2022-11-22T18:52:40.754Z,3.90
2022-11-22T18:55:11.825Z,3.80
2022-11-22T18:57:40.034Z,3.80
2022-11-22T19:00:09.556Z,3.80
2022-11-22T19:02:37.636Z,3.80
2022-11-22T19:05:06.561Z,3.80
2022-11-22T19:07:34.691Z,3.70
2022-11-22T19:10:02.764Z,3.60
2022-11-22T19:12:32.496Z,3.60
2022-11-22T19:15:00.559Z,3.50
2022-11-22T19:17:28.859Z,3.50
2022-11-22T19:19:59.139Z,3.40
2022-11-22T19:22:27.534Z,3.30
2022-11-22T19:24:55.541Z,3.30
2022-11-22T19:27:24.246Z,3.20
2022-11-22T19:29:53.669Z,3.20
2022-11-22T19:32:22.127Z,3.10
2022-11-22T19:34:51.264Z,3.10
2022-11-22T19:37:19.334Z,3.00
2022-11-22T19:39:48.723Z,3.00
2022-11-22T19:42:17.894Z,3.00
2022-11-22T19:44:45.944Z,2.90
2022-11-22T19:47:15.437Z,2.90
2022-11-22T19:49:43.543Z,2.80
2022-11-22T19:54:40.248Z,2.70
2022-11-22T19:57:08.376Z,2.70
2022-11-22T19:59:37.274Z,2.70
2022-11-22T20:02:05.627Z,2.60
2022-11-22T20:04:35.241Z,2.60
2022-11-22T20:12:00.879Z,2.60
2022-11-22T20:14:29.124Z,2.60
2022-11-22T20:19:28.616Z,2.50
2022-11-22T20:22:02.259Z,2.50
2022-11-22T20:24:30.867Z,2.40
2022-11-22T20:31:56.700Z,2.30
2022-11-22T20:34:24.773Z,2.20
2022-11-22T20:36:52.886Z,2.20
2022-11-22T20:39:22.540Z,2.10
2022-11-22T20:47:08.732Z,2.00
2022-11-22T20:49:40.958Z,2.00
2022-11-22T20:52:12.461Z,2.00
2022-11-22T20:54:42.075Z,1.90
2022-11-22T20:57:10.136Z,1.90
2022-11-22T20:59:38.803Z,1.80
2022-11-22T21:09:39.145Z,1.80
2022-11-22T21:12:09.745Z,2.50
2022-11-22T21:27:32.462Z,1.70
2022-11-22T21:32:32.542Z,1.70
2022-11-22T21:39:57.905Z,1.80
2022-11-22T21:44:56.241Z,4.30
2022-11-22T22:02:22.040Z,1.80
2022-11-22T22:10:07.919Z,1.70
2022-11-22T22:17:40.175Z,1.80
2022-11-22T22:20:09.462Z,1.70
2022-11-22T22:22:38.044Z,1.70
2022-11-22T22:25:07.258Z,1.70
2022-11-22T22:35:02.446Z,1.70
2022-11-22T22:39:59.215Z,1.60
2022-11-22T22:52:23.154Z,1.60
2022-11-22T23:09:43.716Z,1.70
2022-11-22T23:12:11.765Z,1.60
2022-11-22T23:14:40.710Z,1.70
2022-11-22T23:17:09.961Z,1.60
2022-11-22T23:27:05.160Z,1.70
2022-11-22T23:32:02.171Z,1.70
2022-11-22T23:36:58.963Z,1.80
2022-11-22T23:39:27.047Z,1.80
2022-11-22T23:41:55.027Z,1.80
2022-11-22T23:44:25.012Z,1.70
2022-11-22T23:49:21.518Z,1.60
2022-11-22T23:51:50.309Z,1.70
2022-11-22T23:54:18.354Z,1.70
2022-11-22T23:56:46.429Z,1.80
2022-11-22T23:59:14.531Z,1.70
